Terminal Aerodrome Forecast
Issued by NWS

Home | Current Version | Previous Version | Text Only | Print | Product List | Glossary On
Versions: 1 2 3 4 5 6 7 8 9 10 11 12 13 14 15 16 17 18
864
FTUS43 KIND 262320
TAFHUF
TAF
KHUF 262320Z 2700/2724 17009KT P6SM VCTS BKN050CB
     FM270300 21006KT P6SM VCSH BKN035
     FM270500 23006KT P6SM BKN020
     FM271000 30004KT P6SM BKN008
     FM271600 02005KT P6SM SCT035
     FM271800 VRB04KT P6SM SCT060=

USA.gov is the U.S. government's official web portal to all federal, state and local government web resources and services.